createdAt,value
2022-09-27T00:00:06.604Z,89.46
2022-09-27T00:02:33.068Z,89.67
2022-09-27T00:04:59.464Z,89.58
2022-09-27T00:07:25.833Z,89.56
2022-09-27T00:09:52.195Z,89.18
2022-09-27T00:12:18.592Z,89.57
2022-09-27T00:14:45.067Z,89.78
2022-09-27T00:17:11.433Z,89.92
2022-09-27T00:19:37.819Z,89.79
2022-09-27T00:22:04.220Z,90.01
2022-09-27T00:24:31.530Z,90.12
2022-09-27T00:26:57.904Z,89.84
2022-09-27T00:29:24.451Z,89.94
2022-09-27T00:31:50.820Z,90.35
2022-09-27T00:34:25.371Z,90.02
2022-09-27T00:36:52.332Z,89.90
2022-09-27T00:39:19.126Z,90.01
2022-09-27T00:41:45.833Z,89.70
2022-09-27T00:44:27.427Z,89.61
2022-09-27T00:47:04.198Z,89.80
2022-09-27T00:49:38.536Z,90.08
2022-09-27T00:52:11.600Z,89.84
2022-09-27T00:54:41.350Z,89.67
2022-09-27T00:57:08.500Z,89.44
2022-09-27T00:59:54.037Z,89.39
2022-09-27T01:02:20.618Z,89.68
2022-09-27T01:04:47.595Z,89.69
2022-09-27T01:07:14.437Z,89.51
2022-09-27T01:09:40.854Z,89.65
2022-09-27T01:12:12.479Z,89.35
2022-09-27T01:14:47.154Z,89.03
2022-09-27T01:17:34.748Z,89.32
2022-09-27T01:20:07.113Z,89.23
2022-09-27T01:23:00.244Z,89.02
2022-09-27T01:25:51.464Z,89.09
2022-09-27T01:28:28.527Z,88.88
2022-09-27T01:31:22.106Z,89.27
2022-09-27T01:33:51.820Z,89.70
2022-09-27T01:36:43.318Z,89.61
2022-09-27T01:39:39.286Z,89.61
2022-09-27T01:42:21.270Z,89.49
2022-09-27T01:45:13.859Z,89.48
2022-09-27T01:47:44.682Z,89.26
2022-09-27T01:50:14.517Z,89.24
2022-09-27T01:52:49.243Z,89.10
2022-09-27T01:55:16.997Z,88.99
2022-09-27T01:57:49.313Z,88.77
2022-09-27T02:00:16.022Z,88.86
2022-09-27T02:02:47.323Z,88.56
2022-09-27T02:05:17.832Z,88.64
2022-09-27T02:07:57.902Z,88.55
2022-09-27T02:10:27.279Z,88.70
2022-09-27T02:13:06.063Z,89.04
2022-09-27T02:15:48.162Z,89.28
2022-09-27T02:18:18.874Z,88.88
2022-09-27T02:20:50.451Z,88.98
2022-09-27T02:23:31.335Z,89.10
2022-09-27T02:26:00.446Z,88.96
2022-09-27T02:28:38.212Z,89.04
2022-09-27T02:31:04.690Z,89.11
2022-09-27T02:33:35.161Z,89.08
2022-09-27T02:36:01.824Z,89.38
2022-09-27T02:38:28.957Z,89.20
2022-09-27T02:40:55.486Z,89.00
2022-09-27T02:43:24.529Z,88.62
2022-09-27T02:46:10.177Z,88.96
2022-09-27T02:48:39.460Z,88.79
2022-09-27T02:51:17.920Z,88.82
2022-09-27T02:54:19.318Z,88.95
2022-09-27T02:57:01.334Z,89.14
2022-09-27T02:59:41.483Z,89.40
2022-09-27T03:02:23.406Z,89.00
2022-09-27T03:04:59.534Z,88.56
2022-09-27T03:07:26.202Z,88.58
2022-09-27T03:09:54.008Z,88.53
2022-09-27T03:12:25.801Z,88.48
2022-09-27T03:14:55.133Z,88.06
2022-09-27T03:17:21.505Z,87.99
2022-09-27T03:19:47.885Z,88.11
2022-09-27T03:22:14.763Z,88.38
2022-09-27T03:24:41.308Z,87.97
2022-09-27T03:27:08.266Z,87.76
2022-09-27T03:29:34.863Z,87.32
2022-09-27T03:32:01.937Z,87.77
2022-09-27T03:34:29.016Z,87.80
2022-09-27T03:36:55.405Z,87.70
2022-09-27T03:39:21.910Z,87.87
2022-09-27T03:41:48.266Z,88.15
2022-09-27T03:44:14.680Z,88.23
2022-09-27T03:46:41.131Z,88.23
2022-09-27T03:49:07.495Z,88.23
2022-09-27T03:51:33.889Z,87.86
2022-09-27T03:54:00.287Z,87.77
2022-09-27T03:56:26.684Z,87.60
2022-09-27T03:58:53.053Z,87.76
2022-09-27T04:01:19.859Z,87.66
2022-09-27T04:03:46.299Z,87.49
2022-09-27T04:06:13.923Z,87.63
2022-09-27T04:08:40.292Z,87.34
2022-09-27T04:11:07.033Z,87.50
2022-09-27T04:13:33.431Z,87.27
2022-09-27T04:15:59.805Z,87.80
2022-09-27T04:18:26.210Z,87.84
2022-09-27T04:20:52.560Z,87.67
2022-09-27T04:23:20.594Z,87.68
2022-09-27T04:25:47.351Z,87.92
2022-09-27T04:28:13.715Z,88.13
2022-09-27T04:30:41.301Z,88.12
2022-09-27T04:33:07.788Z,88.32
2022-09-27T04:35:52.708Z,87.90
2022-09-27T04:38:22.225Z,88.65
2022-09-27T04:40:49.050Z,88.65
2022-09-27T04:43:15.501Z,89.05
2022-09-27T04:45:43.809Z,88.65
2022-09-27T04:48:10.245Z,88.53
2022-09-27T04:50:36.837Z,88.55
2022-09-27T04:53:03.305Z,88.47
2022-09-27T04:55:29.671Z,88.44
2022-09-27T04:57:56.041Z,88.72
2022-09-27T05:00:22.984Z,88.68
2022-09-27T05:02:49.462Z,88.25
2022-09-27T05:05:16.172Z,88.43
2022-09-27T05:07:42.581Z,88.31
2022-09-27T05:10:09.554Z,88.12
2022-09-27T05:12:36.001Z,88.48
2022-09-27T05:15:02.986Z,88.22
2022-09-27T05:17:29.450Z,88.31
2022-09-27T05:19:55.892Z,88.21
2022-09-27T05:22:22.262Z,88.18
2022-09-27T05:24:48.625Z,88.59
2022-09-27T05:27:18.417Z,88.80
2022-09-27T05:29:45.441Z,88.73
2022-09-27T05:32:12.035Z,89.07
2022-09-27T05:34:38.442Z,89.09
2022-09-27T05:37:06.451Z,89.39
2022-09-27T05:39:32.902Z,89.72
2022-09-27T05:42:00.152Z,89.70
2022-09-27T05:44:26.517Z,89.74
2022-09-27T05:46:52.887Z,89.91
2022-09-27T05:49:20.237Z,89.63
2022-09-27T05:51:47.566Z,89.53
2022-09-27T05:54:14.033Z,89.71
2022-09-27T05:56:40.473Z,89.41
2022-09-27T05:59:06.943Z,89.87
2022-09-27T06:01:33.608Z,89.96
2022-09-27T06:04:00.151Z,90.28
2022-09-27T06:06:26.514Z,89.92
2022-09-27T06:08:52.979Z,89.91
2022-09-27T06:11:19.482Z,90.00
2022-09-27T06:13:45.878Z,90.17
2022-09-27T06:16:12.500Z,90.01
2022-09-27T06:18:39.214Z,89.87
2022-09-27T06:21:06.299Z,89.99
2022-09-27T06:23:32.935Z,89.51
2022-09-27T06:26:04.876Z,89.73
2022-09-27T06:28:31.831Z,89.71
2022-09-27T06:31:01.117Z,89.92
2022-09-27T06:33:30.569Z,90.35
2022-09-27T06:35:56.982Z,90.07
2022-09-27T06:38:24.988Z,90.29
2022-09-27T06:40:51.456Z,89.91
2022-09-27T06:43:22.371Z,89.99
2022-09-27T06:45:48.837Z,90.12
2022-09-27T06:48:17.024Z,90.80
2022-09-27T06:50:44.876Z,90.64
2022-09-27T06:53:13.102Z,91.21
2022-09-27T06:55:39.996Z,90.84
2022-09-27T06:58:25.539Z,91.37
2022-09-27T07:00:53.226Z,91.39
2022-09-27T07:03:22.884Z,91.51
2022-09-27T07:06:00.966Z,91.56
2022-09-27T07:08:28.611Z,91.41
2022-09-27T07:11:05.472Z,91.20
2022-09-27T07:13:34.247Z,91.21
2022-09-27T07:16:01.541Z,91.44
2022-09-27T07:18:28.024Z,91.32
2022-09-27T07:20:59.389Z,91.52
2022-09-27T07:23:26.791Z,91.60
2022-09-27T07:25:53.173Z,91.83
2022-09-27T07:28:22.036Z,92.06
2022-09-27T07:30:49.035Z,92.12
2022-09-27T07:33:15.670Z,92.22
2022-09-27T07:35:43.688Z,92.01
2022-09-27T07:38:13.149Z,91.90
2022-09-27T07:40:40.599Z,92.02
2022-09-27T07:43:08.139Z,91.94
2022-09-27T07:45:34.711Z,92.20
2022-09-27T07:48:01.375Z,92.10
2022-09-27T07:50:28.904Z,92.35
2022-09-27T07:52:55.380Z,92.17
2022-09-27T07:55:21.802Z,91.60
2022-09-27T07:57:48.297Z,91.39
2022-09-27T08:00:17.318Z,91.59
2022-09-27T08:02:44.466Z,91.93
2022-09-27T08:05:12.544Z,91.94
2022-09-27T08:07:39.764Z,92.06
2022-09-27T08:10:09.685Z,92.05
2022-09-27T08:12:36.300Z,92.32
2022-09-27T08:15:04.391Z,92.36
2022-09-27T08:17:32.184Z,91.75
2022-09-27T08:19:58.817Z,91.20
2022-09-27T08:22:25.291Z,90.84
2022-09-27T08:24:51.741Z,90.21
2022-09-27T08:27:18.113Z,89.75
2022-09-27T08:29:44.476Z,90.15
2022-09-27T08:32:11.564Z,91.08
2022-09-27T08:34:38.412Z,89.46
2022-09-27T08:37:05.290Z,89.76
2022-09-27T08:39:31.823Z,89.66
2022-09-27T08:42:07.379Z,89.27
2022-09-27T08:44:54.868Z,89.65
2022-09-27T08:47:27.837Z,90.32
2022-09-27T08:50:10.242Z,89.70
2022-09-27T08:52:42.679Z,88.67
2022-09-27T08:55:42.175Z,89.05
2022-09-27T08:58:25.953Z,88.90
2022-09-27T09:00:57.828Z,89.52
2022-09-27T09:03:27.257Z,90.00
2022-09-27T09:06:15.664Z,90.05
2022-09-27T09:08:50.972Z,91.00
2022-09-27T09:11:50.853Z,91.11
2022-09-27T09:14:27.391Z,90.38
2022-09-27T09:17:00.852Z,89.79
2022-09-27T09:19:46.920Z,89.72
2022-09-27T09:23:06.418Z,90.72
2022-09-27T09:25:42.839Z,90.51
2022-09-27T09:28:18.098Z,90.54
2022-09-27T09:31:00.957Z,90.08
2022-09-27T09:33:38.019Z,89.88
2022-09-27T09:36:26.579Z,90.02
2022-09-27T09:38:57.695Z,90.30
2022-09-27T09:41:43.311Z,90.42
2022-09-27T09:44:24.912Z,90.36
2022-09-27T09:46:53.962Z,90.63
2022-09-27T09:49:26.852Z,90.54
2022-09-27T09:51:56.678Z,89.94
2022-09-27T09:54:29.159Z,90.06
2022-09-27T09:57:10.650Z,89.40
2022-09-27T09:59:44.227Z,89.67
2022-09-27T10:02:19.471Z,89.18
2022-09-27T10:04:45.921Z,89.66
2022-09-27T10:07:12.595Z,89.47
2022-09-27T10:09:39.142Z,89.18
2022-09-27T10:12:05.584Z,89.44
2022-09-27T10:14:32.686Z,89.55
2022-09-27T10:17:01.741Z,89.57
2022-09-27T10:19:30.458Z,89.30
2022-09-27T10:22:03.217Z,89.08
2022-09-27T10:24:29.709Z,89.49
2022-09-27T10:27:00.573Z,89.79
2022-09-27T10:29:37.088Z,89.53
2022-09-27T10:32:05.356Z,88.71
2022-09-27T10:34:37.696Z,88.47
2022-09-27T10:37:13.184Z,88.23
2022-09-27T10:39:41.384Z,87.98
2022-09-27T10:42:21.862Z,88.08
2022-09-27T10:44:48.346Z,88.93
2022-09-27T10:47:22.896Z,88.74
2022-09-27T10:49:52.750Z,88.68
2022-09-27T10:52:24.098Z,89.12
2022-09-27T10:54:54.901Z,88.63
2022-09-27T10:57:23.553Z,88.31
2022-09-27T10:59:56.744Z,88.44
2022-09-27T11:02:31.622Z,88.47
2022-09-27T11:05:04.052Z,88.72
2022-09-27T11:07:30.585Z,89.27
2022-09-27T11:10:02.977Z,89.47
2022-09-27T11:12:30.706Z,89.37
2022-09-27T11:14:59.414Z,89.37
2022-09-27T11:17:39.640Z,89.03
2022-09-27T11:20:31.765Z,88.88
2022-09-27T11:23:34.326Z,88.94
2022-09-27T11:26:07.645Z,89.44
2022-09-27T11:28:53.850Z,89.87
2022-09-27T11:31:36.444Z,89.91
2022-09-27T11:34:17.946Z,90.39
2022-09-27T11:37:15.394Z,90.38
2022-09-27T11:40:06.449Z,90.32
2022-09-27T11:42:59.906Z,89.55
2022-09-27T11:46:17.951Z,89.58
2022-09-27T11:49:07.708Z,90.27
2022-09-27T11:52:02.686Z,89.50
2022-09-27T11:54:31.925Z,88.93
2022-09-27T11:57:28.684Z,89.31
2022-09-27T12:00:08.727Z,88.53
2022-09-27T12:02:55.470Z,88.19
2022-09-27T12:05:57.953Z,87.84
2022-09-27T12:08:33.072Z,87.60
2022-09-27T12:11:24.709Z,87.16
2022-09-27T12:14:00.637Z,87.72
2022-09-27T12:16:27.893Z,87.72
2022-09-27T12:18:54.809Z,89.37
2022-09-27T12:21:21.751Z,89.03
2022-09-27T12:24:00.861Z,88.21
2022-09-27T12:26:38.103Z,87.74
2022-09-27T12:29:26.300Z,88.10
2022-09-27T12:32:00.441Z,88.15
2022-09-27T12:34:42.979Z,89.18
2022-09-27T12:37:22.661Z,89.75
2022-09-27T12:40:17.458Z,88.75
2022-09-27T12:43:23.717Z,89.21
2022-09-27T12:46:03.423Z,89.59
2022-09-27T12:48:44.748Z,89.74
2022-09-27T12:51:16.299Z,88.99
2022-09-27T12:53:54.836Z,89.05
2022-09-27T12:56:56.880Z,89.38
2022-09-27T12:59:44.529Z,88.29
2022-09-27T13:02:21.006Z,88.48
2022-09-27T13:05:04.812Z,88.27
2022-09-27T13:07:50.059Z,88.35
2022-09-27T13:10:26.214Z,88.19
2022-09-27T13:12:54.611Z,88.17
2022-09-27T13:15:28.908Z,88.32
2022-09-27T13:18:01.730Z,88.37
2022-09-27T13:20:31.233Z,88.28
2022-09-27T13:22:58.767Z,89.12
2022-09-27T13:25:56.061Z,89.27
2022-09-27T13:28:45.711Z,89.87
2022-09-27T13:31:15.917Z,89.33
2022-09-27T13:33:54.818Z,87.54
2022-09-27T13:36:24.465Z,86.96
2022-09-27T13:39:11.167Z,86.58
2022-09-27T13:41:46.618Z,85.06
2022-09-27T13:44:29.441Z,82.96
2022-09-27T13:47:00.448Z,80.21
2022-09-27T13:49:37.759Z,75.30
2022-09-27T13:52:20.905Z,73.31
2022-09-27T13:54:55.665Z,69.09
2022-09-27T13:57:40.324Z,60.92
2022-09-27T14:00:12.469Z,65.67
2022-09-27T14:02:52.906Z,61.71
2022-09-27T14:05:23.433Z,62.35
2022-09-27T14:07:50.382Z,62.48
2022-09-27T14:10:22.325Z,62.88
2022-09-27T14:12:50.744Z,63.72
2022-09-27T14:15:29.036Z,63.82
2022-09-27T14:17:56.363Z,69.28
2022-09-27T14:20:45.889Z,69.07
2022-09-27T14:23:30.790Z,73.15
2022-09-27T14:25:58.639Z,73.63
2022-09-27T14:28:30.428Z,75.39
2022-09-27T14:31:18.226Z,75.89
2022-09-27T14:33:45.387Z,78.10
2022-09-27T14:36:53.379Z,78.95
2022-09-27T14:39:32.422Z,82.27
2022-09-27T14:42:04.592Z,81.27
2022-09-27T14:44:32.345Z,82.19
2022-09-27T14:47:10.232Z,83.34
2022-09-27T14:49:36.715Z,82.73
2022-09-27T14:52:03.318Z,82.79
2022-09-27T14:54:31.353Z,82.51
2022-09-27T14:56:59.879Z,82.76
2022-09-27T14:59:34.602Z,82.28
2022-09-27T15:02:03.406Z,82.80
2022-09-27T15:04:34.256Z,82.61
2022-09-27T15:07:02.346Z,82.84
2022-09-27T15:09:32.926Z,83.57
2022-09-27T15:12:00.766Z,83.64
2022-09-27T15:14:29.613Z,83.71
2022-09-27T15:17:00.683Z,83.01
2022-09-27T15:19:30.366Z,83.43
2022-09-27T15:22:23.879Z,83.70
2022-09-27T15:24:50.970Z,83.78
2022-09-27T15:27:22.911Z,83.62
2022-09-27T15:29:55.202Z,83.88
2022-09-27T15:32:26.295Z,83.75
2022-09-27T15:34:53.694Z,84.28
2022-09-27T15:37:37.415Z,84.42
2022-09-27T15:40:53.009Z,84.80
2022-09-27T15:44:05.707Z,84.90
2022-09-27T15:46:39.215Z,85.15
2022-09-27T15:49:18.078Z,85.24
2022-09-27T15:51:46.751Z,85.23
2022-09-27T15:54:13.405Z,85.61
2022-09-27T15:56:40.155Z,85.90
2022-09-27T15:59:07.785Z,85.60
2022-09-27T16:01:34.185Z,85.35
2022-09-27T16:04:00.728Z,85.74
2022-09-27T16:06:28.806Z,85.65
2022-09-27T16:08:55.182Z,85.91
2022-09-27T16:11:21.653Z,85.92
2022-09-27T16:13:50.151Z,86.41
2022-09-27T16:16:17.988Z,86.47
2022-09-27T16:18:45.117Z,86.49
2022-09-27T16:21:11.716Z,86.18
2022-09-27T16:23:38.303Z,86.69
2022-09-27T16:26:06.787Z,87.40
2022-09-27T16:28:34.355Z,87.56
2022-09-27T16:31:03.558Z,87.74
2022-09-27T16:33:32.621Z,87.59
2022-09-27T16:36:01.331Z,87.78
2022-09-27T16:38:30.143Z,86.99
2022-09-27T16:41:03.100Z,86.52
2022-09-27T16:43:31.565Z,87.46
2022-09-27T16:46:09.241Z,88.13
2022-09-27T16:48:35.792Z,87.94
2022-09-27T16:51:35.101Z,87.21
2022-09-27T16:54:01.990Z,87.19
2022-09-27T16:56:28.989Z,87.39
2022-09-27T16:58:55.365Z,86.85
2022-09-27T17:01:21.885Z,86.71
2022-09-27T17:03:51.076Z,87.98
2022-09-27T17:06:20.457Z,88.20
2022-09-27T17:08:47.298Z,88.59
2022-09-27T17:11:15.320Z,88.85
2022-09-27T17:13:43.680Z,88.67
2022-09-27T17:16:11.432Z,87.33
2022-09-27T17:18:38.631Z,86.97
2022-09-27T17:21:06.736Z,87.36
2022-09-27T17:23:33.652Z,87.22
2022-09-27T17:26:16.734Z,87.01
2022-09-27T17:28:43.132Z,87.20
2022-09-27T17:31:11.981Z,88.10
2022-09-27T17:33:43.490Z,87.38
2022-09-27T17:36:15.748Z,87.11
2022-09-27T17:38:42.127Z,86.88
2022-09-27T17:41:10.911Z,87.20
2022-09-27T17:43:49.962Z,87.13
2022-09-27T17:46:22.001Z,87.55
2022-09-27T17:49:07.488Z,87.47
2022-09-27T17:51:35.896Z,87.86
2022-09-27T17:54:02.572Z,87.94
2022-09-27T17:56:29.037Z,88.45
2022-09-27T17:58:56.268Z,88.60
2022-09-27T18:01:24.472Z,88.54
2022-09-27T18:03:59.351Z,88.12
2022-09-27T18:06:25.881Z,88.30
2022-09-27T18:08:53.908Z,88.25
2022-09-27T18:11:25.209Z,87.71
2022-09-27T18:13:51.574Z,87.53
2022-09-27T18:16:18.803Z,87.99
2022-09-27T18:18:50.528Z,88.16
2022-09-27T18:21:22.169Z,88.60
2022-09-27T18:23:53.491Z,88.64
2022-09-27T18:26:23.515Z,88.88
2022-09-27T18:28:52.094Z,88.82
2022-09-27T18:31:19.789Z,88.36
2022-09-27T18:33:47.088Z,88.33
2022-09-27T18:36:15.776Z,88.57
2022-09-27T18:38:42.600Z,88.74
2022-09-27T18:41:10.934Z,88.94
2022-09-27T18:43:38.941Z,89.06
2022-09-27T18:46:34.467Z,89.44
2022-09-27T18:48:59.657Z,89.33
2022-09-27T18:51:27.547Z,88.80
2022-09-27T18:53:56.067Z,88.65
2022-09-27T18:56:22.965Z,88.75
2022-09-27T18:58:50.117Z,88.54
2022-09-27T19:01:16.931Z,88.45
2022-09-27T19:03:43.756Z,88.46
2022-09-27T19:06:13.801Z,88.52
2022-09-27T19:08:40.403Z,88.77
2022-09-27T19:11:09.234Z,88.75
2022-09-27T19:13:46.061Z,89.28
2022-09-27T19:16:16.944Z,89.10
2022-09-27T19:18:43.424Z,88.79
2022-09-27T19:21:12.021Z,89.00
2022-09-27T19:23:38.883Z,89.10
2022-09-27T19:26:06.980Z,89.51
2022-09-27T19:28:37.917Z,89.61
2022-09-27T19:31:09.832Z,89.33
2022-09-27T19:33:36.621Z,89.44
2022-09-27T19:36:04.937Z,89.46
2022-09-27T19:38:35.503Z,89.27
2022-09-27T19:41:03.077Z,89.61
2022-09-27T19:43:30.973Z,89.67
2022-09-27T19:46:08.008Z,89.81
2022-09-27T19:48:40.882Z,89.79
2022-09-27T19:51:07.686Z,89.96
2022-09-27T19:53:34.980Z,89.90
2022-09-27T19:56:06.965Z,89.91
2022-09-27T19:58:35.073Z,90.41
2022-09-27T20:01:07.699Z,90.52
2022-09-27T20:03:35.758Z,90.62
2022-09-27T20:06:03.897Z,90.39
2022-09-27T20:08:30.691Z,91.00
2022-09-27T20:11:11.701Z,90.87
2022-09-27T20:13:38.785Z,90.81
2022-09-27T20:16:07.359Z,90.60
2022-09-27T20:18:34.251Z,90.90
2022-09-27T20:21:02.326Z,90.78
2022-09-27T20:23:33.309Z,90.86
2022-09-27T20:26:01.189Z,90.96
2022-09-27T20:28:27.861Z,90.60
2022-09-27T20:31:02.729Z,90.62
2022-09-27T20:33:41.328Z,90.77
2022-09-27T20:36:24.739Z,90.77
2022-09-27T20:38:56.129Z,90.82
2022-09-27T20:41:25.637Z,90.95
2022-09-27T20:43:54.517Z,90.74
2022-09-27T20:46:22.083Z,90.62
2022-09-27T20:48:59.653Z,90.76
2022-09-27T20:51:28.457Z,90.84
2022-09-27T20:53:55.318Z,90.78
2022-09-27T20:56:24.092Z,90.56
2022-09-27T20:58:53.398Z,90.46
2022-09-27T21:01:21.807Z,90.63
2022-09-27T21:03:49.296Z,90.92
2022-09-27T21:06:16.211Z,90.85
2022-09-27T21:08:42.890Z,90.92
2022-09-27T21:11:12.148Z,90.94
2022-09-27T21:13:39.453Z,90.74
2022-09-27T21:16:08.274Z,91.22
2022-09-27T21:18:35.056Z,90.99
2022-09-27T21:21:10.136Z,91.08
2022-09-27T21:23:42.052Z,91.64
2022-09-27T21:26:13.201Z,91.27
2022-09-27T21:28:41.963Z,91.21
2022-09-27T21:31:10.483Z,91.30
2022-09-27T21:33:37.709Z,91.13
2022-09-27T21:36:05.497Z,91.31
2022-09-27T21:38:32.613Z,91.29
2022-09-27T21:41:03.131Z,91.29
2022-09-27T21:43:32.185Z,91.37
2022-09-27T21:46:03.613Z,91.43
2022-09-27T21:48:30.275Z,91.46
2022-09-27T21:51:06.781Z,91.48
2022-09-27T21:53:37.539Z,91.27
2022-09-27T21:56:04.557Z,91.07
2022-09-27T21:58:35.216Z,91.20
2022-09-27T22:01:18.152Z,91.13
2022-09-27T22:03:46.467Z,91.11
2022-09-27T22:06:15.039Z,91.32
2022-09-27T22:08:41.959Z,90.70
2022-09-27T22:11:09.302Z,91.16
2022-09-27T22:13:36.227Z,91.50
2022-09-27T22:16:04.532Z,91.20
2022-09-27T22:18:31.029Z,91.35
2022-09-27T22:21:17.900Z,91.67
2022-09-27T22:23:47.159Z,91.54
2022-09-27T22:26:15.341Z,91.33
2022-09-27T22:28:43.130Z,91.22
2022-09-27T22:31:10.819Z,91.37
2022-09-27T22:33:38.064Z,91.30
2022-09-27T22:36:05.229Z,91.46
2022-09-27T22:38:31.683Z,91.54
2022-09-27T22:41:01.060Z,91.46
2022-09-27T22:43:30.969Z,91.12
2022-09-27T22:45:57.776Z,91.18
2022-09-27T22:48:24.189Z,91.45
2022-09-27T22:50:50.565Z,91.22
2022-09-27T22:53:17.062Z,91.31
2022-09-27T22:55:43.427Z,91.38
2022-09-27T22:58:09.812Z,91.30
2022-09-27T23:00:38.015Z,91.34
2022-09-27T23:03:04.429Z,91.45
2022-09-27T23:05:30.798Z,91.33
2022-09-27T23:07:57.150Z,91.10
2022-09-27T23:10:23.587Z,91.58
2022-09-27T23:12:53.764Z,91.38
2022-09-27T23:15:20.189Z,91.32
2022-09-27T23:17:50.224Z,91.44
2022-09-27T23:20:16.874Z,91.62
2022-09-27T23:22:43.593Z,91.69
2022-09-27T23:25:10.254Z,91.29
2022-09-27T23:27:42.434Z,91.31
2022-09-27T23:30:09.926Z,91.32
2022-09-27T23:32:36.630Z,91.39
2022-09-27T23:35:03.759Z,91.34
2022-09-27T23:37:30.140Z,90.95
2022-09-27T23:39:57.291Z,91.34
2022-09-27T23:42:23.770Z,91.38
2022-09-27T23:44:52.532Z,91.49
2022-09-27T23:47:18.985Z,91.58
2022-09-27T23:49:45.386Z,91.42
2022-09-27T23:52:11.773Z,91.74
2022-09-27T23:54:38.566Z,91.77
2022-09-27T23:57:04.967Z,91.87
2022-09-27T23:59:31.475Z,91.97
